sensor_id;sensor_type;location;lat;lon;timestamp;P1;durP1;ratioP1;P2;durP2;ratioP2
73841;SDS011;62184;52.006;5.924;2024-01-30T00:02:15;31.55;;;28.85;;
73841;SDS011;62184;52.006;5.924;2024-01-30T00:04:41;31.73;;;28.77;;
73841;SDS011;62184;52.006;5.924;2024-01-30T00:07:08;31.85;;;29.02;;
73841;SDS011;62184;52.006;5.924;2024-01-30T00:09:34;31.05;;;28.27;;
73841;SDS011;62184;52.006;5.924;2024-01-30T00:12:00;30.80;;;28.20;;
73841;SDS011;62184;52.006;5.924;2024-01-30T00:14:27;31.05;;;28.25;;
73841;SDS011;62184;52.006;5.924;2024-01-30T00:16:53;30.90;;;28.33;;
73841;SDS011;62184;52.006;5.924;2024-01-30T00:19:22;30.20;;;27.63;;
73841;SDS011;62184;52.006;5.924;2024-01-30T00:21:49;32.10;;;29.30;;
73841;SDS011;62184;52.006;5.924;2024-01-30T00:24:15;30.13;;;27.63;;
73841;SDS011;62184;52.006;5.924;2024-01-30T00:26:42;31.05;;;28.40;;
73841;SDS011;62184;52.006;5.924;2024-01-30T00:29:08;31.83;;;28.95;;
73841;SDS011;62184;52.006;5.924;2024-01-30T00:31:35;32.05;;;29.33;;
73841;SDS011;62184;52.006;5.924;2024-01-30T00:34:01;32.15;;;29.27;;
73841;SDS011;62184;52.006;5.924;2024-01-30T00:36:30;32.17;;;29.38;;
73841;SDS011;62184;52.006;5.924;2024-01-30T00:38:56;32.45;;;29.73;;
73841;SDS011;62184;52.006;5.924;2024-01-30T00:41:23;32.45;;;29.45;;
73841;SDS011;62184;52.006;5.924;2024-01-30T00:43:49;32.42;;;29.52;;
73841;SDS011;62184;52.006;5.924;2024-01-30T00:46:15;31.73;;;28.92;;
73841;SDS011;62184;52.006;5.924;2024-01-30T00:48:42;32.97;;;30.15;;
73841;SDS011;62184;52.006;5.924;2024-01-30T00:51:08;33.50;;;30.60;;
73841;SDS011;62184;52.006;5.924;2024-01-30T00:53:37;34.38;;;31.27;;
73841;SDS011;62184;52.006;5.924;2024-01-30T00:56:04;33.80;;;30.80;;
73841;SDS011;62184;52.006;5.924;2024-01-30T00:58:31;33.50;;;30.42;;
73841;SDS011;62184;52.006;5.924;2024-01-30T01:00:57;32.60;;;29.70;;
73841;SDS011;62184;52.006;5.924;2024-01-30T01:03:23;31.10;;;28.27;;
73841;SDS011;62184;52.006;5.924;2024-01-30T01:05:50;30.35;;;27.52;;
73841;SDS011;62184;52.006;5.924;2024-01-30T01:08:16;30.58;;;27.77;;
73841;SDS011;62184;52.006;5.924;2024-01-30T01:10:45;30.40;;;27.52;;
73841;SDS011;62184;52.006;5.924;2024-01-30T01:13:12;30.73;;;27.83;;
73841;SDS011;62184;52.006;5.924;2024-01-30T01:15:38;31.02;;;28.23;;
73841;SDS011;62184;52.006;5.924;2024-01-30T01:18:05;30.77;;;27.88;;
73841;SDS011;62184;52.006;5.924;2024-01-30T01:20:31;30.50;;;27.80;;
73841;SDS011;62184;52.006;5.924;2024-01-30T01:22:57;30.80;;;27.92;;
73841;SDS011;62184;52.006;5.924;2024-01-30T01:25:24;30.38;;;27.48;;
73841;SDS011;62184;52.006;5.924;2024-01-30T01:27:53;30.73;;;27.83;;
73841;SDS011;62184;52.006;5.924;2024-01-30T01:30:19;30.83;;;28.02;;
73841;SDS011;62184;52.006;5.924;2024-01-30T01:32:45;31.35;;;28.52;;
73841;SDS011;62184;52.006;5.924;2024-01-30T01:35:12;30.87;;;28.07;;
73841;SDS011;62184;52.006;5.924;2024-01-30T01:37:38;30.47;;;27.73;;
73841;SDS011;62184;52.006;5.924;2024-01-30T01:40:05;30.90;;;27.97;;
73841;SDS011;62184;52.006;5.924;2024-01-30T01:42:34;31.38;;;28.27;;
73841;SDS011;62184;52.006;5.924;2024-01-30T01:45:03;31.02;;;28.17;;
73841;SDS011;62184;52.006;5.924;2024-01-30T01:47:30;30.92;;;28.13;;
73841;SDS011;62184;52.006;5.924;2024-01-30T01:49:57;31.50;;;28.60;;
73841;SDS011;62184;52.006;5.924;2024-01-30T01:52:23;31.77;;;28.88;;
73841;SDS011;62184;52.006;5.924;2024-01-30T01:54:50;30.75;;;28.02;;
73841;SDS011;62184;52.006;5.924;2024-01-30T01:57:16;31.20;;;28.27;;
73841;SDS011;62184;52.006;5.924;2024-01-30T01:59:43;29.80;;;27.20;;
73841;SDS011;62184;52.006;5.924;2024-01-30T02:02:12;31.40;;;28.57;;
73841;SDS011;62184;52.006;5.924;2024-01-30T02:04:43;32.45;;;29.45;;
73841;SDS011;62184;52.006;5.924;2024-01-30T02:07:10;31.85;;;28.75;;
73841;SDS011;62184;52.006;5.924;2024-01-30T02:09:37;32.75;;;29.65;;
73841;SDS011;62184;52.006;5.924;2024-01-30T02:12:03;33.67;;;30.48;;
73841;SDS011;62184;52.006;5.924;2024-01-30T02:14:31;32.92;;;29.83;;
73841;SDS011;62184;52.006;5.924;2024-01-30T02:16:57;33.35;;;30.25;;
73841;SDS011;62184;52.006;5.924;2024-01-30T02:19:26;33.03;;;29.90;;
73841;SDS011;62184;52.006;5.924;2024-01-30T02:21:55;33.47;;;30.27;;
73841;SDS011;62184;52.006;5.924;2024-01-30T02:24:21;35.00;;;31.80;;
73841;SDS011;62184;52.006;5.924;2024-01-30T02:26:48;34.92;;;31.73;;
73841;SDS011;62184;52.006;5.924;2024-01-30T02:29:14;34.38;;;31.17;;
73841;SDS011;62184;52.006;5.924;2024-01-30T02:31:41;33.20;;;30.00;;
73841;SDS011;62184;52.006;5.924;2024-01-30T02:34:07;33.85;;;30.65;;
73841;SDS011;62184;52.006;5.924;2024-01-30T02:36:33;32.45;;;29.45;;
73841;SDS011;62184;52.006;5.924;2024-01-30T02:39:03;33.92;;;30.67;;
73841;SDS011;62184;52.006;5.924;2024-01-30T02:41:29;33.95;;;30.75;;
73841;SDS011;62184;52.006;5.924;2024-01-30T02:43:56;34.03;;;30.50;;
73841;SDS011;62184;52.006;5.924;2024-01-30T02:46:22;34.22;;;30.92;;
73841;SDS011;62184;52.006;5.924;2024-01-30T02:48:49;34.15;;;30.92;;
73841;SDS011;62184;52.006;5.924;2024-01-30T02:51:16;32.58;;;29.58;;
73841;SDS011;62184;52.006;5.924;2024-01-30T02:53:43;32.20;;;29.20;;
73841;SDS011;62184;52.006;5.924;2024-01-30T02:56:12;32.65;;;29.52;;
73841;SDS011;62184;52.006;5.924;2024-01-30T02:58:39;33.25;;;30.15;;
73841;SDS011;62184;52.006;5.924;2024-01-30T03:01:06;32.83;;;29.73;;
73841;SDS011;62184;52.006;5.924;2024-01-30T03:03:32;32.40;;;29.37;;
73841;SDS011;62184;52.006;5.924;2024-01-30T03:05:59;33.22;;;30.05;;
73841;SDS011;62184;52.006;5.924;2024-01-30T03:08:25;31.92;;;28.77;;
73841;SDS011;62184;52.006;5.924;2024-01-30T03:10:52;31.85;;;28.88;;
73841;SDS011;62184;52.006;5.924;2024-01-30T03:13:21;33.08;;;29.92;;
73841;SDS011;62184;52.006;5.924;2024-01-30T03:15:47;32.80;;;29.80;;
73841;SDS011;62184;52.006;5.924;2024-01-30T03:18:14;33.17;;;30.10;;
73841;SDS011;62184;52.006;5.924;2024-01-30T03:20:40;31.93;;;29.07;;
73841;SDS011;62184;52.006;5.924;2024-01-30T03:23:06;31.55;;;28.70;;
73841;SDS011;62184;52.006;5.924;2024-01-30T03:25:33;32.15;;;29.25;;
73841;SDS011;62184;52.006;5.924;2024-01-30T03:27:59;31.63;;;28.70;;
73841;SDS011;62184;52.006;5.924;2024-01-30T03:30:28;31.13;;;28.42;;
73841;SDS011;62184;52.006;5.924;2024-01-30T03:32:55;31.52;;;28.75;;
73841;SDS011;62184;52.006;5.924;2024-01-30T03:35:21;33.00;;;30.10;;
73841;SDS011;62184;52.006;5.924;2024-01-30T03:37:48;31.60;;;28.73;;
73841;SDS011;62184;52.006;5.924;2024-01-30T03:40:14;32.47;;;29.53;;
73841;SDS011;62184;52.006;5.924;2024-01-30T03:42:41;31.45;;;28.55;;
73841;SDS011;62184;52.006;5.924;2024-01-30T03:45:08;32.03;;;29.02;;
73841;SDS011;62184;52.006;5.924;2024-01-30T03:47:38;31.52;;;28.55;;
73841;SDS011;62184;52.006;5.924;2024-01-30T03:50:04;32.10;;;29.15;;
73841;SDS011;62184;52.006;5.924;2024-01-30T03:52:31;31.42;;;28.63;;
73841;SDS011;62184;52.006;5.924;2024-01-30T03:54:58;31.08;;;28.30;;
73841;SDS011;62184;52.006;5.924;2024-01-30T03:57:24;31.52;;;28.70;;
73841;SDS011;62184;52.006;5.924;2024-01-30T03:59:51;33.25;;;30.40;;
73841;SDS011;62184;52.006;5.924;2024-01-30T04:02:17;31.48;;;28.67;;
73841;SDS011;62184;52.006;5.924;2024-01-30T04:04:46;32.92;;;30.10;;
73841;SDS011;62184;52.006;5.924;2024-01-30T04:07:12;33.67;;;30.80;;
73841;SDS011;62184;52.006;5.924;2024-01-30T04:09:39;32.97;;;30.07;;
73841;SDS011;62184;52.006;5.924;2024-01-30T04:12:05;32.03;;;29.23;;
73841;SDS011;62184;52.006;5.924;2024-01-30T04:14:32;32.30;;;29.67;;
73841;SDS011;62184;52.006;5.924;2024-01-30T04:16:59;32.15;;;29.45;;
73841;SDS011;62184;52.006;5.924;2024-01-30T04:19:25;31.50;;;28.80;;
73841;SDS011;62184;52.006;5.924;2024-01-30T04:21:54;31.90;;;29.10;;
73841;SDS011;62184;52.006;5.924;2024-01-30T04:24:21;32.20;;;29.40;;
73841;SDS011;62184;52.006;5.924;2024-01-30T04:26:47;32.15;;;29.45;;
73841;SDS011;62184;52.006;5.924;2024-01-30T04:29:13;30.88;;;28.25;;
73841;SDS011;62184;52.006;5.924;2024-01-30T04:31:40;32.13;;;29.33;;
73841;SDS011;62184;52.006;5.924;2024-01-30T04:34:06;30.58;;;28.02;;
73841;SDS011;62184;52.006;5.924;2024-01-30T04:36:33;31.58;;;28.90;;
73841;SDS011;62184;52.006;5.924;2024-01-30T04:39:02;31.58;;;28.98;;
73841;SDS011;62184;52.006;5.924;2024-01-30T04:41:28;30.58;;;27.98;;
73841;SDS011;62184;52.006;5.924;2024-01-30T04:43:54;31.27;;;28.58;;
73841;SDS011;62184;52.006;5.924;2024-01-30T04:46:21;30.83;;;28.20;;
73841;SDS011;62184;52.006;5.924;2024-01-30T04:48:47;31.42;;;28.80;;
73841;SDS011;62184;52.006;5.924;2024-01-30T04:51:14;31.15;;;28.55;;
73841;SDS011;62184;52.006;5.924;2024-01-30T04:53:40;30.80;;;28.10;;
73841;SDS011;62184;52.006;5.924;2024-01-30T04:56:09;31.05;;;28.50;;
73841;SDS011;62184;52.006;5.924;2024-01-30T04:58:36;31.10;;;28.35;;
73841;SDS011;62184;52.006;5.924;2024-01-30T05:01:02;29.95;;;27.45;;
73841;SDS011;62184;52.006;5.924;2024-01-30T05:03:32;31.20;;;28.40;;
73841;SDS011;62184;52.006;5.924;2024-01-30T05:05:59;31.95;;;29.17;;
73841;SDS011;62184;52.006;5.924;2024-01-30T05:08:25;32.25;;;29.45;;
73841;SDS011;62184;52.006;5.924;2024-01-30T05:10:52;32.53;;;29.83;;
73841;SDS011;62184;52.006;5.924;2024-01-30T05:13:21;31.27;;;28.77;;
73841;SDS011;62184;52.006;5.924;2024-01-30T05:15:47;31.73;;;29.13;;
73841;SDS011;62184;52.006;5.924;2024-01-30T05:18:13;32.87;;;30.17;;
73841;SDS011;62184;52.006;5.924;2024-01-30T05:20:40;33.37;;;30.87;;
73841;SDS011;62184;52.006;5.924;2024-01-30T05:23:06;32.10;;;29.50;;
73841;SDS011;62184;52.006;5.924;2024-01-30T05:25:33;30.70;;;28.20;;
73841;SDS011;62184;52.006;5.924;2024-01-30T05:27:59;30.83;;;28.20;;
73841;SDS011;62184;52.006;5.924;2024-01-30T05:30:28;30.00;;;27.57;;
73841;SDS011;62184;52.006;5.924;2024-01-30T05:32:54;29.80;;;27.35;;
73841;SDS011;62184;52.006;5.924;2024-01-30T05:35:21;32.17;;;29.42;;
73841;SDS011;62184;52.006;5.924;2024-01-30T05:37:47;30.40;;;27.95;;
73841;SDS011;62184;52.006;5.924;2024-01-30T05:40:14;28.90;;;26.57;;
73841;SDS011;62184;52.006;5.924;2024-01-30T05:42:41;29.27;;;26.95;;
73841;SDS011;62184;52.006;5.924;2024-01-30T05:45:08;29.77;;;27.35;;
73841;SDS011;62184;52.006;5.924;2024-01-30T05:47:37;29.45;;;27.02;;
73841;SDS011;62184;52.006;5.924;2024-01-30T05:50:05;28.60;;;26.27;;
73841;SDS011;62184;52.006;5.924;2024-01-30T05:52:33;29.77;;;27.27;;
73841;SDS011;62184;52.006;5.924;2024-01-30T05:54:59;28.13;;;25.83;;
73841;SDS011;62184;52.006;5.924;2024-01-30T05:57:26;30.45;;;27.95;;
73841;SDS011;62184;52.006;5.924;2024-01-30T05:59:52;29.30;;;26.80;;
73841;SDS011;62184;52.006;5.924;2024-01-30T06:02:19;28.27;;;25.80;;
73841;SDS011;62184;52.006;5.924;2024-01-30T06:04:48;29.10;;;26.60;;
73841;SDS011;62184;52.006;5.924;2024-01-30T06:07:14;26.58;;;24.38;;
73841;SDS011;62184;52.006;5.924;2024-01-30T06:09:40;27.00;;;24.70;;
73841;SDS011;62184;52.006;5.924;2024-01-30T06:12:07;26.10;;;23.90;;
73841;SDS011;62184;52.006;5.924;2024-01-30T06:14:34;26.42;;;24.20;;
73841;SDS011;62184;52.006;5.924;2024-01-30T06:17:00;26.13;;;23.80;;
73841;SDS011;62184;52.006;5.924;2024-01-30T06:19:27;26.65;;;24.45;;
73841;SDS011;62184;52.006;5.924;2024-01-30T06:21:58;26.63;;;24.17;;
73841;SDS011;62184;52.006;5.924;2024-01-30T06:24:24;25.90;;;23.60;;
73841;SDS011;62184;52.006;5.924;2024-01-30T06:26:51;25.60;;;23.40;;
73841;SDS011;62184;52.006;5.924;2024-01-30T06:29:17;26.17;;;23.88;;
73841;SDS011;62184;52.006;5.924;2024-01-30T06:31:43;26.40;;;24.15;;
73841;SDS011;62184;52.006;5.924;2024-01-30T06:34:10;26.67;;;24.40;;
73841;SDS011;62184;52.006;5.924;2024-01-30T06:36:36;26.02;;;23.73;;
73841;SDS011;62184;52.006;5.924;2024-01-30T06:39:06;24.57;;;22.37;;
73841;SDS011;62184;52.006;5.924;2024-01-30T06:41:32;25.50;;;23.30;;
73841;SDS011;62184;52.006;5.924;2024-01-30T06:44:01;26.25;;;23.95;;
73841;SDS011;62184;52.006;5.924;2024-01-30T06:46:28;25.48;;;23.38;;
73841;SDS011;62184;52.006;5.924;2024-01-30T06:48:54;26.50;;;24.17;;
73841;SDS011;62184;52.006;5.924;2024-01-30T06:51:21;24.37;;;22.17;;
73841;SDS011;62184;52.006;5.924;2024-01-30T06:53:47;25.33;;;23.17;;
73841;SDS011;62184;52.006;5.924;2024-01-30T06:56:16;25.57;;;23.37;;
73841;SDS011;62184;52.006;5.924;2024-01-30T06:58:43;24.88;;;22.75;;
73841;SDS011;62184;52.006;5.924;2024-01-30T07:01:09;24.08;;;22.05;;
73841;SDS011;62184;52.006;5.924;2024-01-30T07:03:35;24.95;;;22.90;;
73841;SDS011;62184;52.006;5.924;2024-01-30T07:06:02;25.85;;;23.75;;
73841;SDS011;62184;52.006;5.924;2024-01-30T07:08:28;25.47;;;23.40;;
73841;SDS011;62184;52.006;5.924;2024-01-30T07:10:55;25.37;;;23.30;;
73841;SDS011;62184;52.006;5.924;2024-01-30T07:13:24;26.33;;;24.10;;
73841;SDS011;62184;52.006;5.924;2024-01-30T07:15:50;24.60;;;22.50;;
73841;SDS011;62184;52.006;5.924;2024-01-30T07:18:17;25.17;;;22.87;;
73841;SDS011;62184;52.006;5.924;2024-01-30T07:20:43;25.97;;;23.87;;
73841;SDS011;62184;52.006;5.924;2024-01-30T07:23:10;26.13;;;23.77;;
73841;SDS011;62184;52.006;5.924;2024-01-30T07:25:36;24.27;;;22.27;;
73841;SDS011;62184;52.006;5.924;2024-01-30T07:28:03;25.05;;;22.95;;
73841;SDS011;62184;52.006;5.924;2024-01-30T07:30:33;24.52;;;22.33;;
73841;SDS011;62184;52.006;5.924;2024-01-30T07:32:59;23.98;;;21.98;;
73841;SDS011;62184;52.006;5.924;2024-01-30T07:35:25;24.93;;;22.97;;
73841;SDS011;62184;52.006;5.924;2024-01-30T07:37:52;24.33;;;22.33;;
73841;SDS011;62184;52.006;5.924;2024-01-30T07:40:18;24.47;;;22.47;;
73841;SDS011;62184;52.006;5.924;2024-01-30T07:42:45;23.98;;;21.98;;
73841;SDS011;62184;52.006;5.924;2024-01-30T07:45:11;25.42;;;23.20;;
73841;SDS011;62184;52.006;5.924;2024-01-30T07:47:40;25.90;;;23.70;;
73841;SDS011;62184;52.006;5.924;2024-01-30T07:50:07;23.98;;;22.08;;
73841;SDS011;62184;52.006;5.924;2024-01-30T07:52:34;24.90;;;22.83;;
73841;SDS011;62184;52.006;5.924;2024-01-30T07:55:01;25.27;;;23.27;;
73841;SDS011;62184;52.006;5.924;2024-01-30T07:57:28;25.20;;;23.20;;
73841;SDS011;62184;52.006;5.924;2024-01-30T07:59:54;25.07;;;23.03;;
73841;SDS011;62184;52.006;5.924;2024-01-30T08:02:21;25.85;;;23.70;;
73841;SDS011;62184;52.006;5.924;2024-01-30T08:04:50;25.25;;;23.35;;
73841;SDS011;62184;52.006;5.924;2024-01-30T08:07:16;25.13;;;23.03;;
73841;SDS011;62184;52.006;5.924;2024-01-30T08:09:42;25.07;;;23.00;;
73841;SDS011;62184;52.006;5.924;2024-01-30T08:12:09;25.53;;;23.37;;
73841;SDS011;62184;52.006;5.924;2024-01-30T08:14:35;26.13;;;24.13;;
73841;SDS011;62184;52.006;5.924;2024-01-30T08:17:02;25.65;;;23.55;;
73841;SDS011;62184;52.006;5.924;2024-01-30T08:19:29;25.40;;;23.33;;
73841;SDS011;62184;52.006;5.924;2024-01-30T08:21:58;24.92;;;22.83;;
73841;SDS011;62184;52.006;5.924;2024-01-30T08:24:24;25.23;;;23.17;;
73841;SDS011;62184;52.006;5.924;2024-01-30T08:26:51;25.83;;;23.63;;
73841;SDS011;62184;52.006;5.924;2024-01-30T08:29:17;25.85;;;23.85;;
73841;SDS011;62184;52.006;5.924;2024-01-30T08:31:44;26.27;;;24.35;;
73841;SDS011;62184;52.006;5.924;2024-01-30T08:34:10;26.47;;;24.20;;
73841;SDS011;62184;52.006;5.924;2024-01-30T08:36:37;25.90;;;23.85;;
73841;SDS011;62184;52.006;5.924;2024-01-30T08:39:06;26.42;;;24.35;;
73841;SDS011;62184;52.006;5.924;2024-01-30T08:41:32;26.20;;;24.08;;
73841;SDS011;62184;52.006;5.924;2024-01-30T08:43:59;25.95;;;23.85;;
73841;SDS011;62184;52.006;5.924;2024-01-30T08:46:26;26.42;;;24.30;;
73841;SDS011;62184;52.006;5.924;2024-01-30T08:48:52;25.50;;;23.42;;
73841;SDS011;62184;52.006;5.924;2024-01-30T08:51:18;25.67;;;23.65;;
73841;SDS011;62184;52.006;5.924;2024-01-30T08:53:45;26.15;;;24.15;;
73841;SDS011;62184;52.006;5.924;2024-01-30T08:56:14;26.90;;;24.70;;
73841;SDS011;62184;52.006;5.924;2024-01-30T08:58:40;25.10;;;23.20;;
73841;SDS011;62184;52.006;5.924;2024-01-30T09:01:07;26.35;;;24.42;;
73841;SDS011;62184;52.006;5.924;2024-01-30T09:03:33;26.20;;;24.20;;
73841;SDS011;62184;52.006;5.924;2024-01-30T09:06:00;25.85;;;23.75;;
73841;SDS011;62184;52.006;5.924;2024-01-30T09:08:26;27.15;;;24.95;;
73841;SDS011;62184;52.006;5.924;2024-01-30T09:10:52;26.80;;;24.70;;
73841;SDS011;62184;52.006;5.924;2024-01-30T09:13:21;26.83;;;24.73;;
73841;SDS011;62184;52.006;5.924;2024-01-30T09:15:48;26.20;;;24.17;;
73841;SDS011;62184;52.006;5.924;2024-01-30T09:18:14;27.23;;;25.02;;
73841;SDS011;62184;52.006;5.924;2024-01-30T09:20:41;27.13;;;24.92;;
73841;SDS011;62184;52.006;5.924;2024-01-30T09:23:07;25.90;;;23.80;;
73841;SDS011;62184;52.006;5.924;2024-01-30T09:25:33;26.45;;;24.20;;
73841;SDS011;62184;52.006;5.924;2024-01-30T09:28:00;26.20;;;24.10;;
73841;SDS011;62184;52.006;5.924;2024-01-30T09:30:29;25.80;;;23.58;;
73841;SDS011;62184;52.006;5.924;2024-01-30T09:32:56;25.45;;;23.20;;
73841;SDS011;62184;52.006;5.924;2024-01-30T09:35:22;26.92;;;24.73;;
73841;SDS011;62184;52.006;5.924;2024-01-30T09:37:48;26.10;;;23.92;;
73841;SDS011;62184;52.006;5.924;2024-01-30T09:40:15;25.97;;;23.90;;
73841;SDS011;62184;52.006;5.924;2024-01-30T09:42:41;26.77;;;24.60;;
73841;SDS011;62184;52.006;5.924;2024-01-30T09:45:11;26.17;;;23.98;;
73841;SDS011;62184;52.006;5.924;2024-01-30T09:47:43;26.92;;;24.58;;
73841;SDS011;62184;52.006;5.924;2024-01-30T09:50:11;26.43;;;24.33;;
73841;SDS011;62184;52.006;5.924;2024-01-30T09:52:40;26.17;;;24.07;;
73841;SDS011;62184;52.006;5.924;2024-01-30T09:55:08;26.65;;;24.55;;
73841;SDS011;62184;52.006;5.924;2024-01-30T09:57:35;26.58;;;24.48;;
73841;SDS011;62184;52.006;5.924;2024-01-30T10:00:02;27.13;;;24.95;;
73841;SDS011;62184;52.006;5.924;2024-01-30T10:02:31;27.20;;;24.93;;
73841;SDS011;62184;52.006;5.924;2024-01-30T10:05:00;26.85;;;24.67;;
73841;SDS011;62184;52.006;5.924;2024-01-30T10:07:27;26.77;;;24.50;;
73841;SDS011;62184;52.006;5.924;2024-01-30T10:09:54;26.50;;;24.10;;
73841;SDS011;62184;52.006;5.924;2024-01-30T10:12:20;26.85;;;24.55;;
73841;SDS011;62184;52.006;5.924;2024-01-30T10:14:46;26.30;;;24.20;;
73841;SDS011;62184;52.006;5.924;2024-01-30T10:17:13;25.92;;;23.83;;
73841;SDS011;62184;52.006;5.924;2024-01-30T10:19:40;26.02;;;23.73;;
73841;SDS011;62184;52.006;5.924;2024-01-30T10:22:10;26.10;;;23.98;;
73841;SDS011;62184;52.006;5.924;2024-01-30T10:24:36;26.30;;;24.10;;
73841;SDS011;62184;52.006;5.924;2024-01-30T10:27:05;25.83;;;23.73;;
73841;SDS011;62184;52.006;5.924;2024-01-30T10:29:31;26.75;;;24.48;;
73841;SDS011;62184;52.006;5.924;2024-01-30T10:31:58;26.83;;;24.60;;
73841;SDS011;62184;52.006;5.924;2024-01-30T10:34:25;26.80;;;24.50;;
73841;SDS011;62184;52.006;5.924;2024-01-30T10:36:54;26.90;;;24.60;;
73841;SDS011;62184;52.006;5.924;2024-01-30T10:39:36;26.85;;;24.55;;
73841;SDS011;62184;52.006;5.924;2024-01-30T10:42:05;27.08;;;24.95;;
73841;SDS011;62184;52.006;5.924;2024-01-30T10:44:37;26.30;;;24.08;;
73841;SDS011;62184;52.006;5.924;2024-01-30T10:47:14;27.77;;;25.38;;
73841;SDS011;62184;52.006;5.924;2024-01-30T10:49:47;26.65;;;24.45;;
73841;SDS011;62184;52.006;5.924;2024-01-30T10:52:15;25.65;;;23.50;;
73841;SDS011;62184;52.006;5.924;2024-01-30T10:54:45;26.27;;;24.10;;
73841;SDS011;62184;52.006;5.924;2024-01-30T10:57:14;26.35;;;24.25;;
73841;SDS011;62184;52.006;5.924;2024-01-30T10:59:42;26.75;;;24.45;;
73841;SDS011;62184;52.006;5.924;2024-01-30T11:02:10;26.13;;;23.93;;
73841;SDS011;62184;52.006;5.924;2024-01-30T11:04:38;26.57;;;24.47;;
73841;SDS011;62184;52.006;5.924;2024-01-30T11:07:13;26.45;;;24.25;;
73841;SDS011;62184;52.006;5.924;2024-01-30T11:09:41;26.52;;;24.33;;
73841;SDS011;62184;52.006;5.924;2024-01-30T11:12:21;26.25;;;24.10;;
73841;SDS011;62184;52.006;5.924;2024-01-30T11:14:49;26.27;;;23.98;;
73841;SDS011;62184;52.006;5.924;2024-01-30T11:17:27;25.48;;;23.25;;
73841;SDS011;62184;52.006;5.924;2024-01-30T11:19:53;25.80;;;23.65;;
73841;SDS011;62184;52.006;5.924;2024-01-30T11:22:20;25.63;;;23.48;;
73841;SDS011;62184;52.006;5.924;2024-01-30T11:24:46;25.55;;;23.27;;
73841;SDS011;62184;52.006;5.924;2024-01-30T11:27:15;25.13;;;22.83;;
73841;SDS011;62184;52.006;5.924;2024-01-30T11:29:42;25.60;;;23.40;;
73841;SDS011;62184;52.006;5.924;2024-01-30T11:32:09;26.80;;;24.50;;
73841;SDS011;62184;52.006;5.924;2024-01-30T11:34:35;26.40;;;24.20;;
73841;SDS011;62184;52.006;5.924;2024-01-30T11:37:09;26.77;;;24.48;;
73841;SDS011;62184;52.006;5.924;2024-01-30T11:39:39;28.10;;;25.47;;
73841;SDS011;62184;52.006;5.924;2024-01-30T11:42:07;27.92;;;25.40;;
73841;SDS011;62184;52.006;5.924;2024-01-30T11:44:37;27.10;;;24.70;;
73841;SDS011;62184;52.006;5.924;2024-01-30T11:47:03;27.60;;;25.20;;
73841;SDS011;62184;52.006;5.924;2024-01-30T11:49:30;27.35;;;24.83;;
73841;SDS011;62184;52.006;5.924;2024-01-30T11:51:56;27.13;;;24.63;;
73841;SDS011;62184;52.006;5.924;2024-01-30T11:54:23;26.20;;;24.00;;
73841;SDS011;62184;52.006;5.924;2024-01-30T11:56:50;25.65;;;23.55;;
73841;SDS011;62184;52.006;5.924;2024-01-30T11:59:16;24.48;;;22.35;;
73841;SDS011;62184;52.006;5.924;2024-01-30T12:01:45;24.48;;;22.38;;
73841;SDS011;62184;52.006;5.924;2024-01-30T12:04:12;24.27;;;22.13;;
73841;SDS011;62184;52.006;5.924;2024-01-30T12:06:38;23.90;;;21.80;;
73841;SDS011;62184;52.006;5.924;2024-01-30T12:09:05;23.70;;;21.70;;
73841;SDS011;62184;52.006;5.924;2024-01-30T12:11:32;23.75;;;21.75;;
73841;SDS011;62184;52.006;5.924;2024-01-30T12:13:58;24.52;;;22.23;;
73841;SDS011;62184;52.006;5.924;2024-01-30T12:16:25;23.27;;;21.38;;
73841;SDS011;62184;52.006;5.924;2024-01-30T12:19:01;23.55;;;21.63;;
73841;SDS011;62184;52.006;5.924;2024-01-30T12:21:28;23.50;;;21.52;;
73841;SDS011;62184;52.006;5.924;2024-01-30T12:23:55;22.67;;;20.77;;
73841;SDS011;62184;52.006;5.924;2024-01-30T12:26:23;24.30;;;22.20;;
73841;SDS011;62184;52.006;5.924;2024-01-30T12:28:50;23.70;;;21.70;;
73841;SDS011;62184;52.006;5.924;2024-01-30T12:31:16;24.13;;;22.02;;
73841;SDS011;62184;52.006;5.924;2024-01-30T12:33:43;22.92;;;21.02;;
73841;SDS011;62184;52.006;5.924;2024-01-30T12:36:12;23.17;;;21.25;;
73841;SDS011;62184;52.006;5.924;2024-01-30T12:38:38;22.58;;;20.77;;
73841;SDS011;62184;52.006;5.924;2024-01-30T12:41:06;22.27;;;20.43;;
73841;SDS011;62184;52.006;5.924;2024-01-30T12:43:33;21.25;;;19.45;;
73841;SDS011;62184;52.006;5.924;2024-01-30T12:46:00;20.40;;;18.70;;
73841;SDS011;62184;52.006;5.924;2024-01-30T12:48:27;19.92;;;18.33;;
73841;SDS011;62184;52.006;5.924;2024-01-30T12:50:54;18.83;;;17.17;;
73841;SDS011;62184;52.006;5.924;2024-01-30T12:53:23;19.20;;;17.70;;
73841;SDS011;62184;52.006;5.924;2024-01-30T12:55:50;19.02;;;17.48;;
73841;SDS011;62184;52.006;5.924;2024-01-30T12:58:16;18.67;;;17.05;;
73841;SDS011;62184;52.006;5.924;2024-01-30T13:00:43;18.20;;;16.83;;
73841;SDS011;62184;52.006;5.924;2024-01-30T13:03:09;17.93;;;16.63;;
73841;SDS011;62184;52.006;5.924;2024-01-30T13:05:36;17.67;;;16.40;;
73841;SDS011;62184;52.006;5.924;2024-01-30T13:08:02;17.27;;;16.08;;
73841;SDS011;62184;52.006;5.924;2024-01-30T13:10:32;18.38;;;16.90;;
73841;SDS011;62184;52.006;5.924;2024-01-30T13:12:59;17.27;;;15.98;;
73841;SDS011;62184;52.006;5.924;2024-01-30T13:15:25;17.05;;;15.60;;
73841;SDS011;62184;52.006;5.924;2024-01-30T13:17:52;17.23;;;15.88;;
73841;SDS011;62184;52.006;5.924;2024-01-30T13:20:18;16.98;;;15.77;;
73841;SDS011;62184;52.006;5.924;2024-01-30T13:22:45;16.65;;;15.45;;
73841;SDS011;62184;52.006;5.924;2024-01-30T13:25:13;16.83;;;15.63;;
73841;SDS011;62184;52.006;5.924;2024-01-30T13:27:42;16.77;;;15.55;;
73841;SDS011;62184;52.006;5.924;2024-01-30T13:30:09;16.63;;;15.33;;
73841;SDS011;62184;52.006;5.924;2024-01-30T13:32:36;16.47;;;15.27;;
73841;SDS011;62184;52.006;5.924;2024-01-30T13:35:03;16.23;;;15.13;;
73841;SDS011;62184;52.006;5.924;2024-01-30T13:37:30;17.45;;;16.05;;
73841;SDS011;62184;52.006;5.924;2024-01-30T13:39:57;17.02;;;15.90;;
73841;SDS011;62184;52.006;5.924;2024-01-30T13:42:23;17.02;;;15.90;;
73841;SDS011;62184;52.006;5.924;2024-01-30T13:44:52;17.73;;;16.50;;
73841;SDS011;62184;52.006;5.924;2024-01-30T13:47:18;17.23;;;16.13;;
73841;SDS011;62184;52.006;5.924;2024-01-30T13:49:45;17.52;;;16.23;;
73841;SDS011;62184;52.006;5.924;2024-01-30T13:52:12;18.52;;;17.10;;
73841;SDS011;62184;52.006;5.924;2024-01-30T13:54:39;19.00;;;17.60;;
73841;SDS011;62184;52.006;5.924;2024-01-30T13:57:05;19.60;;;18.02;;
73841;SDS011;62184;52.006;5.924;2024-01-30T13:59:32;17.40;;;16.10;;
73841;SDS011;62184;52.006;5.924;2024-01-30T14:02:01;17.50;;;16.10;;
73841;SDS011;62184;52.006;5.924;2024-01-30T14:04:27;18.70;;;17.00;;
73841;SDS011;62184;52.006;5.924;2024-01-30T14:06:54;17.95;;;16.35;;
73841;SDS011;62184;52.006;5.924;2024-01-30T14:09:20;18.73;;;16.98;;
73841;SDS011;62184;52.006;5.924;2024-01-30T14:11:47;19.30;;;17.60;;
73841;SDS011;62184;52.006;5.924;2024-01-30T14:14:13;19.43;;;17.60;;
73841;SDS011;62184;52.006;5.924;2024-01-30T14:16:40;20.07;;;18.47;;
73841;SDS011;62184;52.006;5.924;2024-01-30T14:19:09;18.58;;;17.13;;
73841;SDS011;62184;52.006;5.924;2024-01-30T14:21:35;18.73;;;17.03;;